Flight Track Log - Related Links

Times and Time Zones

All times are in EDT time to prevent confusion due to time zone crossing. See the UAL33 flight status page for this flight to view local times or setup timezone preferences in your user account.

Time Position Orientation Groundspeed Altitude Reporting Facility
EDT Latitude Longitude Course Direction KTS MPH feet Rate Location/Type
Fri 03:28:17 PM 33.9400 -118.4560 260° West 201 231 2,600  Level FlightAware ADS-B
Fri 03:28:42 PM 33.9320 -118.4830 250° West 223 257 3,400 2,400 Climbing FlightAware ADS-B
Fri 03:29:12 PM 33.9160 -118.5190 242° Southwest 247 284 4,800 2,933 Climbing FlightAware ADS-B
Fri 03:29:27 PM 33.9000 -118.5300 210° Southwest 255 293 5,600 3,200 Climbing FlightAware ADS-B
Fri 03:29:42 PM 33.8820 -118.5310 183° South 255 293 6,400 3,200 Climbing FlightAware ADS-B
Fri 03:29:57 PM 33.8650 -118.5210 154° Southeast 256 295 7,200 2,800 Climbing FlightAware ADS-B
Fri 03:30:12 PM 33.8570 -118.5090 129° Southeast 257 296 7,800 2,880 Climbing FlightAware ADS-B
Fri 03:30:22 PM 33.8520 -118.4930 111° Southeast 257 296 8,400 3,600 Climbing FlightAware ADS-B
Fri 03:30:37 PM 33.8540 -118.4700 84° East 258 297 9,300 3,000 Climbing FlightAware ADS-B
Fri 03:30:52 PM 33.8640 -118.4540 53° Northeast 266 306 9,900 2,600 Climbing FlightAware ADS-B
Fri 03:31:07 PM 33.8810 -118.4400 34° Northeast 278 320 10,600 2,945 Climbing FlightAware ADS-B
Fri 03:31:47 PM 33.9310 -118.4280 11° North 283 326 12,600 3,055 Climbing FlightAware ADS-B
Fri 03:32:02 PM 33.9490 -118.4170 27° Northeast 287 330 13,400 3,000 Climbing FlightAware ADS-B
Fri 03:32:17 PM 33.9620 -118.3980 50° Northeast 290 334 14,100 1,855 Climbing FlightAware ADS-B
Fri 03:32:57 PM 33.9800 -118.3330 72° East 337 388 15,100 988 Climbing FlightAware ADS-B
Fri 03:33:42 PM 33.9990 -118.2450 75° East 397 457 15,500 1,200 Climbing FlightAware ADS-B
Fri 03:34:22 PM 34.0180 -118.1560 76° East 420 483 16,800 2,100 Climbing FlightAware ADS-B
Fri 03:35:02 PM 34.0470 -118.0670 69° East 432 497 18,300 2,188 Climbing FlightAware ADS-B
Fri 03:35:47 PM 34.0920 -117.9700 61° Northeast 444 511 19,900 2,259 Climbing FlightAware ADS-B
Fri 03:36:27 PM 34.1410 -117.8900 53° Northeast 446 513 21,500 2,259 Climbing FlightAware ADS-B
Fri 03:37:12 PM 34.1970 -117.8020 52° Northeast 454 522 23,100 1,976 Climbing FlightAware ADS-B
Fri 03:37:52 PM 34.2490 -117.7200 52° Northeast 463 533 24,300 1,725 Climbing FlightAware ADS-B
Fri 03:38:32 PM 34.3020 -117.6390 52° Northeast 471 542 25,400 1,624 Climbing FlightAware ADS-B
Fri 03:39:17 PM 34.3620 -117.5440 53° Northeast 479 551 26,600 1,694 Climbing FlightAware ADS-B
Fri 03:39:57 PM 34.4160 -117.4590 52° Northeast 480 552 27,800 1,976 Climbing FlightAware ADS-B
Fri 03:40:42 PM 34.4790 -117.3610 52° Northeast 477 549 29,400 2,047 Climbing FlightAware ADS-B
Fri 03:41:22 PM 34.5320 -117.2780 52° Northeast 474 545 30,700 1,725 Climbing FlightAware ADS-B
Fri 03:42:02 PM 34.5850 -117.1930 53° Northeast 477 549 31,700 1,553 Climbing FlightAware ADS-B
Fri 03:42:47 PM 34.6460 -117.0980 52° Northeast 480 552 32,900 1,694 Climbing FlightAware ADS-B
Fri 03:43:27 PM 34.6980 -117.0150 53° Northeast 475 547 34,100 1,950 Climbing FlightAware ADS-B
Fri 03:44:07 PM 34.7450 -116.9400 53° Northeast 459 528 35,500 1,553 Climbing FlightAware ADS-B
Fri 03:44:52 PM 34.8140 -116.8420 49° Northeast 466 536 36,300 988 Climbing FlightAware ADS-B
Fri 03:45:32 PM 34.8740 -116.7630 47° Northeast 471 542 36,900 494 Climbing FlightAware ADS-B
Fri 03:46:17 PM 34.9400 -116.6790 46° Northeast 475 547 37,000 71 Climbing FlightAware ADS-B
Fri 03:46:57 PM 35.0010 -116.6000 47° Northeast 469 540 37,000  Level FlightAware ADS-B
Fri 03:47:37 PM 35.0610 -116.5230 46° Northeast 466 536 37,000  Level FlightAware ADS-B
Fri 03:48:22 PM 35.1300 -116.4350 46° Northeast 461 531 37,000  Level FlightAware ADS-B
Fri 03:49:02 PM 35.1830 -116.3660 47° Northeast 459 528 37,000  Level FlightAware ADS-B
Fri 03:49:47 PM 35.2520 -116.2760 47° Northeast 458 527 37,000  Level FlightAware ADS-B
Fri 03:50:27 PM 35.3100 -116.2000 47° Northeast 459 528 37,000  Level FlightAware ADS-B
Fri 03:51:07 PM 35.3680 -116.1240 47° Northeast 462 532 37,000  Level FlightAware ADS-B
Fri 03:51:52 PM 35.4350 -116.0370 47° Northeast 464 534 37,000  Level FlightAware ADS-B
Fri 03:52:32 PM 35.4920 -115.9620 47° Northeast 467 537 37,000  Level FlightAware ADS-B
Fri 03:53:12 PM 35.5520 -115.8820 47° Northeast 470 541 37,000  Level FlightAware ADS-B
Fri 03:53:57 PM 35.6180 -115.7950 47° Northeast 472 543 37,000  Level FlightAware ADS-B
Fri 03:54:37 PM 35.6780 -115.7160 47° Northeast 472 543 37,000  Level FlightAware ADS-B
Fri 03:55:22 PM 35.7460 -115.6260 47° Northeast 472 543 37,000  Level FlightAware ADS-B
Fri 03:56:02 PM 35.8060 -115.5460 47° Northeast 472 543 37,000  Level FlightAware ADS-B
Fri 03:56:42 PM 35.8630 -115.4690 48° Northeast 472 543 37,000  Level FlightAware ADS-B
Fri 03:57:27 PM 35.9300 -115.3790 47° Northeast 472 543 37,000  Level FlightAware ADS-B
Fri 03:58:07 PM 35.9880 -115.3020 47° Northeast 470 541 37,000  Level FlightAware ADS-B
Fri 03:58:52 PM 36.0560 -115.2100 48° Northeast 469 540 37,000  Level FlightAware ADS-B
Fri 03:59:32 PM 36.1130 -115.1330 47° Northeast 468 539 37,000  Level FlightAware ADS-B
Fri 04:00:12 PM 36.1730 -115.0600 44° Northeast 467 537 37,000  Level FlightAware ADS-B
Fri 04:00:57 PM 36.2430 -114.9710 46° Northeast 466 536 37,000  Level FlightAware ADS-B
Fri 04:01:37 PM 36.3040 -114.8950 45° Northeast 467 537 37,000  Level FlightAware ADS-B
Fri 04:02:22 PM 36.3710 -114.8090 46° Northeast 467 537 37,000  Level FlightAware ADS-B
Fri 04:03:02 PM 36.4310 -114.7310 46° Northeast 468 539 37,000  Level FlightAware ADS-B
Fri 04:03:42 PM 36.4890 -114.6560 46° Northeast 468 539 37,000  Level FlightAware ADS-B
Fri 04:04:27 PM 36.5590 -114.5640 47° Northeast 468 539 37,000  Level FlightAware ADS-B
Fri 04:05:12 PM 36.6250 -114.4770 47° Northeast 467 537 37,000  Level FlightAware ADS-B
Fri 04:05:52 PM 36.6830 -114.4020 46° Northeast 466 536 37,000  Level FlightAware ADS-B
Fri 04:06:32 PM 36.7430 -114.3230 47° Northeast 466 536 37,000  Level FlightAware ADS-B
Fri 04:07:07 PM 36.7900 -114.2440 53° Northeast 470 541 37,000  Level FlightAware ADS-B
Fri 04:07:47 PM 36.8330 -114.1570 58° Northeast 470 541 37,000  Level FlightAware ADS-B
Fri 04:08:32 PM 36.8790 -114.0620 59° Northeast 470 541 37,000  Level FlightAware ADS-B
Fri 04:09:22 PM 36.9400 -113.9330 59° Northeast 467 537 37,000  Level FlightAware ADS-B
Fri 04:10:02 PM 36.9840 -113.8420 59° Northeast 467 537 37,000  Level FlightAware ADS-B
Fri 04:10:47 PM 37.0350 -113.7330 60° Northeast 468 539 37,000  Level FlightAware ADS-B
Fri 04:11:27 PM 37.0770 -113.6450 59° Northeast 468 539 37,000  Level FlightAware ADS-B
Fri 04:12:07 PM 37.1240 -113.5460 59° Northeast 469 540 37,000  Level FlightAware ADS-B
Fri 04:12:52 PM 37.1730 -113.4430 59° Northeast 468 539 37,000  Level FlightAware ADS-B
Fri 04:13:27 PM 37.2090 -113.3670 59° Northeast 467 537 37,000  Level FlightAware ADS-B
Fri 04:14:07 PM 37.2470 -113.2880 59° Northeast 467 537 37,000  Level FlightAware ADS-B
Fri 04:14:57 PM 37.3100 -113.1500 60° Northeast 465 535 37,000  Level FlightAware ADS-B
Fri 04:15:37 PM 37.3530 -113.0570 60° Northeast 466 536 37,000  Level FlightAware ADS-B
Fri 04:16:22 PM 37.4010 -112.9560 59° Northeast 468 539 37,000  Level FlightAware ADS-B
Fri 04:16:57 PM 37.4380 -112.8760 60° Northeast 468 539 37,000  Level FlightAware ADS-B
Fri 04:17:37 PM 37.4760 -112.7970 59° Northeast 468 539 37,000  Level FlightAware ADS-B
Fri 04:18:27 PM 37.5230 -112.6970 59° Northeast 468 539 37,000  Level FlightAware ADS-B
Fri 04:19:07 PM 37.5610 -112.6180 59° Northeast 468 539 37,000  Level FlightAware ADS-B
Fri 04:19:47 PM 37.5990 -112.5380 59° Northeast 468 539 37,000  Level FlightAware ADS-B
Fri 04:20:27 PM 37.6370 -112.4590 59° Northeast 468 539 37,000  Level FlightAware ADS-B
Fri 04:21:07 PM 37.6750 -112.3790 59° Northeast 468 539 37,000  Level FlightAware ADS-B
Fri 04:21:57 PM 37.7220 -112.2790 59° Northeast 468 539 37,000  Level FlightAware ADS-B
Fri 04:22:37 PM 37.7600 -112.1990 59° Northeast 468 539 37,000  Level FlightAware ADS-B
Fri 04:23:17 PM 37.7980 -112.1200 59° Northeast 468 539 37,000  Level FlightAware ADS-B
Fri 04:23:57 PM 37.8360 -112.0400 59° Northeast 468 539 37,000  Level FlightAware ADS-B
Fri 04:24:37 PM 37.8740 -111.9600 59° Northeast 468 539 37,000  Level FlightAware ADS-B
Fri 04:25:27 PM 37.9210 -111.8600 59° Northeast 468 539 37,000  Level FlightAware ADS-B
Fri 04:26:07 PM 37.9590 -111.7800 59° Northeast 468 539 37,000  Level FlightAware ADS-B
Fri 04:26:23 PM 38.0989 -111.5903 59° Northeast 454 522 37,000  Level Salt Lake Center
Fri 04:27:24 PM 38.1742 -111.4617 53° Northeast 454 522 37,000  Level Salt Lake Center
Fri 04:28:26 PM 38.2472 -111.3308 55° Northeast 454 522 37,000  Level Salt Lake Center
Fri 04:29:28 PM 38.3203 -111.2022 54° Northeast 450 518 37,000  Level Salt Lake Center
Fri 04:30:29 PM 38.3922 -111.0725 55° Northeast 449 517 37,000  Level Salt Lake Center
Fri 04:31:31 PM 38.4750 -110.9253 54° Northeast 447 514 37,000  Level Salt Lake Center
Fri 04:32:33 PM 38.5431 -110.8017 55° Northeast 446 513 37,000  Level Salt Lake Center
Fri 04:33:34 PM 38.6228 -110.6581 55° Northeast 444 511 37,000  Level Salt Lake Center
Fri 04:34:24 PM 38.6772 -110.5542 56° Northeast 441 507 37,000  Level Denver Center
Fri 04:35:25 PM 38.7456 -110.4311 55° Northeast 442 509 37,000  Level Denver Center
Fri 04:36:27 PM 38.8244 -110.2869 55° Northeast 443 510 37,000  Level Denver Center
Fri 04:42:07 PM 39.2240 -109.5510 55° Northeast 454 522 37,000  Level FlightAware ADS-B
Fri 04:43:12 PM 39.3070 -109.3940 56° Northeast 452 520 37,000  Level FlightAware ADS-B
Fri 04:43:47 PM 39.3490 -109.3160 55° Northeast 452 520 37,000  Level FlightAware ADS-B
Fri 04:44:37 PM 39.4040 -109.2100 56° Northeast 452 520 37,000  Level FlightAware ADS-B
Fri 04:45:17 PM 39.4500 -109.1230 56° Northeast 452 520 37,000  Level FlightAware ADS-B
Fri 04:46:02 PM 39.4990 -109.0290 56° Northeast 452 520 37,000  Level FlightAware ADS-B
Fri 04:47:12 PM 39.5820 -108.8570 58° Northeast 454 522 37,000  Level FlightAware ADS-B
Fri 04:47:52 PM 39.6030 -108.7740 72° East 455 524 37,000  Level FlightAware ADS-B
Fri 04:48:32 PM 39.6390 -108.6480 70° East 455 524 37,000  Level FlightAware ADS-B
Fri 04:49:17 PM 39.6730 -108.5300 69° East 454 522 37,000  Level FlightAware ADS-B
Fri 04:49:52 PM 39.6980 -108.4410 70° East 454 522 37,000  Level FlightAware ADS-B
Fri 04:50:42 PM 39.7330 -108.3140 70° East 454 522 37,000  Level FlightAware ADS-B
Fri 04:51:22 PM 39.7620 -108.2140 69° East 454 522 37,000  Level FlightAware ADS-B
Fri 04:52:02 PM 39.7910 -108.1100 70° East 454 522 37,000  Level FlightAware ADS-B
Fri 04:52:47 PM 39.8230 -107.9960 70° East 455 524 37,000  Level FlightAware ADS-B
Fri 04:53:27 PM 39.8480 -107.9050 70° East 454 522 37,000  Level FlightAware ADS-B
Fri 04:54:37 PM 39.9000 -107.7170 70° East 455 524 37,000  Level FlightAware ADS-B
Fri 04:55:32 PM 39.9180 -107.6510 70° East 455 524 37,000  Level FlightAware ADS-B
Fri 04:56:17 PM 39.9710 -107.4620 70° East 454 522 37,000  Level FlightAware ADS-B
Fri 04:56:57 PM 40.0010 -107.3520 70° East 454 522 37,000  Level FlightAware ADS-B
Fri 04:57:42 PM 40.0330 -107.2370 70° East 455 524 37,000  Level FlightAware ADS-B
Fri 04:58:22 PM 40.0630 -107.1290 70° East 455 524 37,000  Level FlightAware ADS-B
Fri 04:59:02 PM 40.0890 -107.0330 70° East 455 524 37,000  Level FlightAware ADS-B
Fri 04:59:47 PM 40.1180 -106.9260 70° East 454 522 37,000  Level FlightAware ADS-B
Fri 05:00:27 PM 40.1480 -106.8150 70° East 455 524 37,000  Level FlightAware ADS-B
Fri 05:01:12 PM 40.1820 -106.6890 71° East 455 524 37,000  Level FlightAware ADS-B
Fri 05:01:47 PM 40.2060 -106.6000 71° East 456 525 37,000  Level FlightAware ADS-B
Fri 05:02:32 PM 40.2370 -106.4840 71° East 456 525 37,000  Level FlightAware ADS-B
Fri 05:03:17 PM 40.2680 -106.3680 71° East 456 525 37,000  Level FlightAware ADS-B
Fri 05:03:57 PM 40.2970 -106.2600 71° East 457 526 37,000  Level FlightAware ADS-B
Fri 05:04:42 PM 40.3290 -106.1410 71° East 458 527 37,000  Level FlightAware ADS-B
Fri 05:05:22 PM 40.3560 -106.0370 71° East 457 526 37,000  Level FlightAware ADS-B
Fri 05:06:07 PM 40.3860 -105.9250 71° East 458 527 37,000  Level FlightAware ADS-B
Fri 05:06:47 PM 40.4140 -105.8150 71° East 458 527 37,000  Level FlightAware ADS-B
Fri 05:07:03 PM 40.4264 -105.7680 71° East 37,000  Level FlightAware ADS-B
Fri 05:08:12 PM 40.4730 -105.5890 71° East 461 531 37,000  Level FlightAware ADS-B
Fri 05:08:22 PM 40.4808 -105.5580 72° East 461 531 37,000  Level FlightAware ADS-B
Fri 05:08:52 PM 40.5000 -105.4820 72° East 463 533 37,000  Level FlightAware ADS-B
Fri 05:08:56 PM 40.5038 -105.4690 69° East 463 533 37,000  Level FlightAware ADS-B
Fri 05:09:28 PM 40.5255 -105.3850 71° East 465 535 37,000  Level FlightAware ADS-B
Fri 05:10:06 PM 40.5517 -105.2820 71° East 466 536 37,000  Level FlightAware ADS-B
Fri 05:10:39 PM 40.5742 -105.1940 71° East 467 537 37,000  Level FlightAware ADS-B
Fri 05:11:13 PM 40.5976 -105.1020 71° East 468 539 37,000  Level FlightAware ADS-B
Fri 05:11:43 PM 40.6181 -105.0200 72° East 469 540 37,000  Level FlightAware ADS-B
Fri 05:12:14 PM 40.6393 -104.9360 72° East 470 541 37,000  Level FlightAware ADS-B
Fri 05:12:49 PM 40.6630 -104.8420 72° East 471 542 37,000  Level FlightAware ADS-B
Fri 05:13:22 PM 40.6853 -104.7530 72° East 472 543 37,000  Level FlightAware ADS-B
Fri 05:13:52 PM 40.7057 -104.6710 72° East 471 542 37,000  Level FlightAware ADS-B
Fri 05:14:22 PM 40.7261 -104.5880 72° East 471 542 37,000  Level FlightAware ADS-B
Fri 05:14:53 PM 40.7466 -104.5060 72° East 471 542 37,000  Level FlightAware ADS-B
Fri 05:15:23 PM 40.7672 -104.4220 72° East 472 543 37,000  Level FlightAware ADS-B
Fri 05:15:53 PM 40.7873 -104.3400 72° East 472 543 37,000  Level FlightAware ADS-B
Fri 05:16:24 PM 40.8077 -104.2560 72° East 473 544 37,000  Level FlightAware ADS-B
Fri 05:16:54 PM 40.8281 -104.1720 72° East 473 544 37,000  Level FlightAware ADS-B
Fri 05:17:26 PM 40.8489 -104.0870 72° East 474 545 37,000  Level FlightAware ADS-B
Fri 05:17:56 PM 40.8690 -104.0030 72° East 474 545 37,000  Level FlightAware ADS-B
Fri 05:18:26 PM 40.8891 -103.9200 72° East 474 545 37,000  Level FlightAware ADS-B
Fri 05:18:58 PM 40.9098 -103.8330 72° East 475 547 37,000  Level FlightAware ADS-B
Fri 05:19:28 PM 40.9299 -103.7490 72° East 475 547 37,000  Level FlightAware ADS-B
Fri 05:19:58 PM 40.9496 -103.6660 73° East 475 547 37,000  Level FlightAware ADS-B
Fri 05:20:36 PM 40.9744 -103.5610 73° East 474 545 37,000  Level FlightAware ADS-B
Fri 05:21:06 PM 40.9943 -103.4770 73° East 474 545 37,000  Level FlightAware ADS-B
Fri 05:21:37 PM 41.0140 -103.3930 73° East 474 545 37,000  Level FlightAware ADS-B
Fri 05:22:08 PM 41.0341 -103.3070 73° East 474 545 37,000  Level FlightAware ADS-B
Fri 05:22:38 PM 41.0535 -103.2230 73° East 474 545 37,000  Level FlightAware ADS-B
Fri 05:23:13 PM 41.0758 -103.1270 73° East 475 547 37,000  Level FlightAware ADS-B
Fri 05:23:43 PM 41.0954 -103.0420 73° East 474 545 37,000  Level FlightAware ADS-B
Fri 05:24:15 PM 41.1156 -102.9540 73° East 474 545 37,000  Level FlightAware ADS-B
Fri 05:24:46 PM 41.1328 -102.8690 75° East 474 545 37,000  Level FlightAware ADS-B
Fri 05:25:17 PM 41.1501 -102.7810 75° East 473 544 37,000  Level FlightAware ADS-B
Fri 05:26:10 PM 41.1798 -102.6320 75° East 474 545 37,000  Level FlightAware ADS-B
Fri 05:26:42 PM 41.1977 -102.5430 75° East 473 544 37,000  Level FlightAware ADS-B
Fri 05:27:14 PM 41.2154 -102.4540 75° East 474 545 37,000  Level FlightAware ADS-B
Fri 05:27:44 PM 41.2324 -102.3680 75° East 474 545 37,000  Level FlightAware ADS-B
Fri 05:28:15 PM 41.2494 -102.2830 75° East 474 545 37,000  Level FlightAware ADS-B
Fri 05:28:45 PM 41.2660 -102.1980 75° East 474 545 37,000  Level FlightAware ADS-B
Fri 05:29:16 PM 41.2832 -102.1100 75° East 474 545 37,000  Level FlightAware ADS-B
Fri 05:29:47 PM 41.2998 -102.0240 76° East 474 545 37,000  Level FlightAware ADS-B
Fri 05:30:17 PM 41.3165 -101.9380 75° East 474 545 37,000  Level FlightAware ADS-B
Fri 05:30:47 PM 41.3330 -101.8530 75° East 474 545 37,000  Level FlightAware ADS-B
Fri 05:31:18 PM 41.3493 -101.7670 76° East 475 547 37,000  Level FlightAware ADS-B
Fri 05:31:48 PM 41.3658 -101.6810 76° East 474 545 37,000  Level FlightAware ADS-B
Fri 05:32:19 PM 41.3821 -101.5950 76° East 475 547 37,000  Level FlightAware ADS-B
Fri 05:32:49 PM 41.3982 -101.5090 76° East 475 547 37,000  Level FlightAware ADS-B
Fri 05:33:19 PM 41.4143 -101.4230 76° East 476 548 37,000  Level FlightAware ADS-B
Fri 05:33:52 PM 41.4317 -101.3300 76° East 476 548 37,000  Level FlightAware ADS-B
Fri 05:34:21 PM 41.4289 -101.2686 76° East 474 545 37,000  Level Denver Center
Fri 05:35:23 PM 41.4653 -101.0753 76° East 479 551 37,000  Level Denver Center
Fri 05:36:25 PM 41.4983 -100.9108 75° East 479 551 37,000  Level Denver Center
Fri 05:37:27 PM 41.5319 -100.7458 75° East 478 550 37,000  Level Denver Center
Fri 05:38:29 PM 41.5697 -100.5536 75° East 477 549 37,000  Level Denver Center
Fri 05:39:31 PM 41.6028 -100.3878 75° East 481 554 37,000  Level Denver Center
Fri 05:40:33 PM 41.6400 -100.1931 76° East 482 555 37,000  Level Denver Center
Fri 05:41:35 PM 41.6717 -100.0272 76° East 481 554 37,000  Level Denver Center
Fri 05:42:37 PM 41.7092 -99.8306 76° East 485 558 37,000  Level Denver Center
Fri 05:43:39 PM 41.7383 -99.6742 76° East 485 558 37,000  Level Denver Center
Fri 05:44:41 PM 41.7725 -99.4983 75° East 486 559 37,000  Level Denver Center
Fri 05:45:43 PM 41.8114 -99.2861 76° East 489 563 37,000  Level Denver Center
Fri 05:46:45 PM 41.8436 -99.1092 76° East 486 559 37,000  Level Denver Center
Fri 05:47:02 PM 41.8506 -99.0736 75° East 489 563 37,000  Level Minneapolis Center
Fri 05:48:04 PM 41.8825 -98.8961 76° East 487 560 37,000  Level Minneapolis Center
Fri 05:49:06 PM 41.9136 -98.7192 77° East 486 559 37,000  Level Minneapolis Center
Fri 05:50:08 PM 41.9431 -98.5406 77° East 487 560 37,000 774 Level Minneapolis Center
Fri 05:51:10 PM 41.9658 -98.3239 82° East 486 559 38,600 968 Climbing Minneapolis Center
Fri 05:52:12 PM 41.9825 -98.1469 83° East 479 551 39,000 194 Climbing Minneapolis Center
Fri 05:53:14 PM 41.9975 -97.9828 83° East 472 543 39,000  Level Minneapolis Center
Fri 05:54:16 PM 42.0136 -97.8050 83° East 474 545 39,000  Level Minneapolis Center
Fri 05:55:18 PM 42.0300 -97.6272 83° East 478 550 39,000  Level Minneapolis Center
Fri 05:56:20 PM 42.0508 -97.4106 83° East 484 557 39,000  Level Minneapolis Center
Fri 05:57:22 PM 42.0661 -97.2283 83° East 488 562 39,000  Level Minneapolis Center
Fri 05:58:24 PM 42.0814 -97.0475 83° East 487 560 39,000  Level Minneapolis Center
Fri 05:59:26 PM 42.0972 -96.8653 83° East 488 562 39,000  Level Minneapolis Center
Fri 06:00:28 PM 42.1125 -96.6839 83° East 487 560 39,000  Level Minneapolis Center
Fri 06:01:30 PM 42.1275 -96.5011 84° East 488 562 39,000  Level Minneapolis Center
Fri 06:02:32 PM 42.1428 -96.3169 84° East 492 566 39,000  Level Minneapolis Center
Fri 06:03:47 PM 42.1814 -96.0672 78° East 489 563 39,000  Level Minneapolis Center
Fri 06:04:49 PM 42.2672 -95.9281 50° Northeast 483 556 39,000  Level Minneapolis Center
Fri 06:10:17 PM 42.7530 -95.2000 50° Northeast 478 550 39,000  Level FlightAware ADS-B
Fri 06:10:42 PM 42.7750 -95.1280 67° East 483 556 39,000  Level FlightAware ADS-B
Fri 06:11:17 PM 42.7810 -95.0230 86° East 486 559 39,000  Level FlightAware ADS-B
Fri 06:11:57 PM 42.7800 -94.9000 91° East 486 559 39,000  Level FlightAware ADS-B
Fri 06:12:42 PM 42.7780 -94.7660 91° East 487 560 39,000  Level FlightAware ADS-B
Fri 06:13:32 PM 42.7760 -94.6070 91° East 489 563 39,000  Level FlightAware ADS-B
Fri 06:14:12 PM 42.7750 -94.4840 91° East 489 563 39,000  Level FlightAware ADS-B
Fri 06:14:57 PM 42.7730 -94.3490 91° East 490 564 39,000  Level FlightAware ADS-B
Fri 06:15:37 PM 42.7710 -94.2240 91° East 491 565 39,000  Level FlightAware ADS-B
Fri 06:16:17 PM 42.7690 -94.1040 91° East 491 565 39,000  Level FlightAware ADS-B
Fri 06:17:02 PM 42.7670 -93.9650 91° East 489 563 39,000  Level FlightAware ADS-B
Fri 06:17:42 PM 42.7650 -93.8370 91° East 490 564 39,000  Level FlightAware ADS-B
Fri 06:18:27 PM 42.7620 -93.7040 92° East 490 564 39,000  Level FlightAware ADS-B
Fri 06:19:07 PM 42.7600 -93.5780 91° East 490 564 39,000  Level FlightAware ADS-B
Fri 06:19:47 PM 42.7570 -93.4550 92° East 491 565 39,000  Level FlightAware ADS-B
Fri 06:20:32 PM 42.7540 -93.3140 92° East 493 567 39,000  Level FlightAware ADS-B
Fri 06:21:12 PM 42.7510 -93.1900 92° East 494 568 39,000  Level FlightAware ADS-B
Fri 06:21:57 PM 42.7480 -93.0550 92° East 495 570 39,000  Level FlightAware ADS-B
Fri 06:22:37 PM 42.7450 -92.9290 92° East 497 572 39,000  Level FlightAware ADS-B
Fri 06:23:17 PM 42.7410 -92.8030 92° East 498 573 39,000  Level FlightAware ADS-B
Fri 06:24:02 PM 42.7380 -92.6610 92° East 499 574 39,000  Level FlightAware ADS-B
Fri 06:24:42 PM 42.7340 -92.5380 92° East 500 575 39,000  Level FlightAware ADS-B
Fri 06:25:27 PM 42.7300 -92.3990 92° East 500 575 39,000  Level FlightAware ADS-B
Fri 06:26:07 PM 42.7260 -92.2720 92° East 501 577 39,000  Level FlightAware ADS-B
Fri 06:26:42 PM 42.7230 -92.1700 92° East 501 577 39,000  Level FlightAware ADS-B
Fri 06:27:32 PM 42.7170 -92.0000 93° East 501 577 39,000  Level FlightAware ADS-B
Fri 06:28:12 PM 42.7130 -91.8770 92° East 501 577 39,000  Level FlightAware ADS-B
Fri 06:28:57 PM 42.7080 -91.7370 93° East 502 578 39,000  Level FlightAware ADS-B
Fri 06:29:37 PM 42.7030 -91.6140 93° East 502 578 39,000  Level FlightAware ADS-B
Fri 06:30:17 PM 42.6990 -91.4870 92° East 503 579 39,000  Level FlightAware ADS-B
Fri 06:31:02 PM 42.6930 -91.3420 93° East 504 580 39,000  Level FlightAware ADS-B
Fri 06:31:42 PM 42.6880 -91.2220 93° East 506 582 39,000  Level FlightAware ADS-B
Fri 06:32:27 PM 42.6820 -91.0740 93° East 511 588 39,000  Level FlightAware ADS-B
Fri 06:33:07 PM 42.6770 -90.9450 93° East 514 592 39,000  Level FlightAware ADS-B
Fri 06:33:47 PM 42.6710 -90.8160 94° East 515 593 39,000  Level FlightAware ADS-B
Fri 06:34:32 PM 42.6650 -90.6760 93° East 516 594 39,000  Level FlightAware ADS-B
Fri 06:35:07 PM 42.6600 -90.5600 93° East 516 594 39,000  Level FlightAware ADS-B
Fri 06:35:57 PM 42.6520 -90.3960 94° East 518 596 39,000  Level FlightAware ADS-B
Fri 06:36:37 PM 42.6460 -90.2690 94° East 519 597 39,000  Level FlightAware ADS-B
Fri 06:37:17 PM 42.6390 -90.1370 94° East 520 598 39,000  Level FlightAware ADS-B
Fri 06:38:02 PM 42.6320 -89.9930 94° East 521 600 39,000  Level FlightAware ADS-B
Fri 06:38:42 PM 42.6250 -89.8630 94° East 521 600 39,000  Level FlightAware ADS-B
Fri 06:39:22 PM 42.6180 -89.7280 94° East 521 600 39,000  Level FlightAware ADS-B
Fri 06:40:07 PM 42.6100 -89.5850 94° East 523 602 39,000  Level FlightAware ADS-B
Fri 06:40:47 PM 42.6030 -89.4510 94° East 524 603 39,000  Level FlightAware ADS-B
Fri 06:41:32 PM 42.5950 -89.3090 94° East 524 603 39,000  Level FlightAware ADS-B
Fri 06:42:07 PM 42.5890 -89.1910 94° East 523 602 39,000  Level FlightAware ADS-B
Fri 06:42:57 PM 42.5850 -89.0280 92° East 524 603 39,000  Level FlightAware ADS-B
Fri 06:43:37 PM 42.5840 -88.9140 91° East 524 603 39,000  Level FlightAware ADS-B
Fri 06:44:17 PM 42.5850 -88.7660 89° East 525 604 39,000  Level FlightAware ADS-B
Fri 06:45:02 PM 42.5860 -88.6150 89° East 527 606 39,000  Level FlightAware ADS-B
Fri 06:45:42 PM 42.5860 -88.4820 90° East 529 609 39,000  Level FlightAware ADS-B
Fri 06:46:22 PM 42.5870 -88.3530 89° East 529 609 39,000  Level FlightAware ADS-B
Fri 06:47:02 PM 42.5870 -88.2270 90° East 530 610 39,000  Level FlightAware ADS-B
Fri 06:47:47 PM 42.5860 -88.0710 90° East 532 612 39,000  Level FlightAware ADS-B
Fri 06:48:27 PM 42.5860 -87.9360 90° East 532 612 39,000  Level FlightAware ADS-B
Fri 06:49:12 PM 42.5850 -87.7810 90° East 534 615 39,000  Level FlightAware ADS-B
Fri 06:49:52 PM 42.5840 -87.6540 91° East 533 613 39,000  Level FlightAware ADS-B
Fri 06:50:37 PM 42.5830 -87.5010 90° East 534 615 39,000  Level FlightAware ADS-B
Fri 06:51:17 PM 42.5820 -87.3690 91° East 534 615 39,000  Level FlightAware ADS-B
Fri 06:51:52 PM 42.5810 -87.2530 91° East 534 615 39,000  Level FlightAware ADS-B
Fri 06:52:42 PM 42.5790 -87.0920 91° East 534 615 39,000  Level FlightAware ADS-B
Fri 06:53:22 PM 42.5780 -86.9480 90° East 534 615 39,000  Level FlightAware ADS-B
Fri 06:54:07 PM 42.5760 -86.8030 91° East 535 616 39,000  Level FlightAware ADS-B
Fri 06:54:42 PM 42.5740 -86.6920 91° East 535 616 39,000  Level FlightAware ADS-B
Fri 06:55:32 PM 42.5710 -86.5210 91° East 534 615 39,000  Level FlightAware ADS-B
Fri 06:56:12 PM 42.5690 -86.3910 91° East 535 616 39,000  Level FlightAware ADS-B
Fri 06:56:52 PM 42.5660 -86.2510 92° East 535 616 39,000  Level FlightAware ADS-B
Fri 06:57:37 PM 42.5630 -86.1060 92° East 536 617 39,000  Level FlightAware ADS-B
Fri 06:58:12 PM 42.5610 -85.9840 91° East 537 618 39,000  Level FlightAware ADS-B
Fri 06:58:57 PM 42.5580 -85.8330 91° East 538 619 39,000  Level FlightAware ADS-B
Fri 06:59:42 PM 42.5540 -85.6820 92° East 538 619 39,000  Level FlightAware ADS-B
Fri 07:00:22 PM 42.5510 -85.5460 92° East 539 620 39,000  Level FlightAware ADS-B
Fri 07:01:07 PM 42.5460 -85.3890 92° East 539 620 39,000  Level FlightAware ADS-B
Fri 07:01:42 PM 42.5430 -85.2740 92° East 538 619 39,000  Level FlightAware ADS-B
Fri 07:02:32 PM 42.5380 -85.1090 92° East 538 619 39,000  Level FlightAware ADS-B
Fri 07:03:07 PM 42.5350 -84.9850 92° East 538 619 39,000  Level FlightAware ADS-B
Fri 07:03:52 PM 42.5300 -84.8470 93° East 539 620 39,000  Level FlightAware ADS-B
Fri 07:04:37 PM 42.5250 -84.6850 92° East 538 619 39,000  Level FlightAware ADS-B
Fri 07:05:12 PM 42.5210 -84.5720 93° East 537 618 39,000  Level FlightAware ADS-B
Fri 07:06:02 PM 42.5150 -84.3960 93° East 537 618 39,000  Level FlightAware ADS-B
Fri 07:06:42 PM 42.5100 -84.2620 93° East 537 618 39,000  Level FlightAware ADS-B
Fri 07:07:17 PM 42.5060 -84.1510 93° East 537 618 39,000  Level FlightAware ADS-B
Fri 07:08:07 PM 42.4990 -83.9840 93° East 536 617 39,000  Level FlightAware ADS-B
Fri 07:08:47 PM 42.4940 -83.8500 93° East 536 617 39,000  Level FlightAware ADS-B
Fri 07:09:22 PM 42.4890 -83.7460 94° East 537 618 39,000  Level FlightAware ADS-B
Fri 07:10:02 PM 42.4840 -83.6130 93° East 538 619 39,000  Level FlightAware ADS-B
Fri 07:11:07 PM 42.4740 -83.3890 93° East 538 619 39,000  Level FlightAware ADS-B
Fri 07:11:52 PM 42.4670 -83.2430 94° East 539 620 39,000  Level FlightAware ADS-B
Fri 07:12:32 PM 42.4610 -83.1160 94° East 539 620 39,000  Level FlightAware ADS-B
Fri 07:13:12 PM 42.4540 -82.9700 94° East 541 623 39,000  Level FlightAware ADS-B
Fri 07:13:52 PM 42.4470 -82.8440 94° East 540 621 39,000  Level FlightAware ADS-B
Fri 07:14:37 PM 42.4390 -82.6840 94° East 539 620 39,000  Level FlightAware ADS-B
Fri 07:15:12 PM 42.4330 -82.5720 94° East 537 618 39,000  Level FlightAware ADS-B
Fri 07:15:52 PM 42.4260 -82.4300 94° East 534 615 39,000  Level FlightAware ADS-B
Fri 07:16:42 PM 42.4170 -82.2760 94° East 532 612 39,000  Level FlightAware ADS-B
Fri 07:17:22 PM 42.4110 -82.1550 94° East 528 608 39,000  Level FlightAware ADS-B
Fri 07:18:02 PM 42.4020 -82.0040 95° East 524 603 39,000  Level FlightAware ADS-B
Fri 07:18:42 PM 42.3950 -81.8870 95° East 521 600 39,000  Level FlightAware ADS-B
Fri 07:19:32 PM 42.3850 -81.7210 95° East 518 596 39,000  Level FlightAware ADS-B
Fri 07:20:12 PM 42.3770 -81.5890 95° East 517 595 39,000  Level FlightAware ADS-B
Fri 07:20:57 PM 42.3690 -81.4530 95° East 517 595 39,000  Level FlightAware ADS-B
Fri 07:21:37 PM 42.3590 -81.2990 95° East 518 596 39,000  Level FlightAware ADS-B
Fri 07:22:17 PM 42.3510 -81.1680 95° East 519 597 39,000  Level FlightAware ADS-B
Fri 07:23:02 PM 42.3420 -81.0330 95° East 521 600 39,000  Level FlightAware ADS-B
Fri 07:23:42 PM 42.3320 -80.8900 95° East 521 600 39,000  Level FlightAware ADS-B
Fri 07:24:27 PM 42.3220 -80.7470 95° East 520 598 39,000  Level FlightAware ADS-B
Fri 07:25:07 PM 42.3130 -80.6170 95° East 518 596 39,000  Level FlightAware ADS-B
Fri 07:29:07 PM 42.2570 -79.8530 95° East 507 583 39,000  Level FlightAware ADS-B
Fri 07:29:47 PM 42.2470 -79.7290 96° East 507 583 39,000  Level FlightAware ADS-B
Fri 07:30:32 PM 42.2360 -79.5860 96° East 506 582 39,000  Level FlightAware ADS-B
Fri 07:31:12 PM 42.2270 -79.4650 96° East 506 582 39,000  Level FlightAware ADS-B
Fri 07:31:57 PM 42.2170 -79.3470 96° East 507 583 39,000  Level FlightAware ADS-B
Fri 07:32:47 PM 42.2020 -79.1770 97° East 509 586 39,000  Level FlightAware ADS-B
Fri 07:33:32 PM 42.1780 -79.0440 104° East 514 592 39,000  Level FlightAware ADS-B
Fri 07:34:27 PM 42.1350 -78.8720 109° East 516 594 39,000  Level FlightAware ADS-B
Fri 07:35:12 PM 42.1020 -78.7400 109° East 517 595 39,000  Level FlightAware ADS-B
Fri 07:35:52 PM 42.0700 -78.6140 109° East 517 595 39,000  Level FlightAware ADS-B
Fri 07:36:37 PM 42.0350 -78.4750 109° East 518 596 39,000  Level FlightAware ADS-B
Fri 07:37:17 PM 42.0050 -78.3600 109° East 519 597 39,000  Level FlightAware ADS-B
Fri 07:37:57 PM 41.9720 -78.2320 109° East 519 597 39,000  Level FlightAware ADS-B
Fri 07:38:37 PM 41.9410 -78.1100 109° East 519 597 39,000  Level FlightAware ADS-B
Fri 07:39:22 PM 41.9050 -77.9740 110° East 520 598 39,000  Level FlightAware ADS-B
Fri 07:40:07 PM 41.8720 -77.8460 109° East 522 601 39,000  Level FlightAware ADS-B
Fri 07:40:47 PM 41.8380 -77.7150 109° East 523 602 39,000  Level FlightAware ADS-B
Fri 07:41:27 PM 41.8060 -77.5930 109° East 525 604 39,000  Level FlightAware ADS-B
Fri 07:42:12 PM 41.7700 -77.4590 110° East 527 606 39,000  Level FlightAware ADS-B
Fri 07:42:52 PM 41.7370 -77.3330 109° East 527 606 39,000  Level FlightAware ADS-B
Fri 07:43:32 PM 41.7040 -77.2100 110° East 527 606 39,000  Level FlightAware ADS-B
Fri 07:44:17 PM 41.6670 -77.0730 110° East 529 609 39,000  Level FlightAware ADS-B
Fri 07:44:57 PM 41.6340 -76.9510 110° East 529 609 39,000  Level FlightAware ADS-B
Fri 07:45:39 PM 41.5925 -76.7993 110° East 529 609 39,000  Level FlightAware ADS-B
Fri 07:46:14 PM 41.5633 -76.6925 110° East 526 605 39,000  Level FlightAware ADS-B
Fri 07:46:45 PM 41.5374 -76.5983 110° East 526 605 39,000  Level FlightAware ADS-B
Fri 07:47:20 PM 41.5086 -76.4934 110° East 525 604 39,000  Level FlightAware ADS-B
Fri 07:47:54 PM 41.4801 -76.3902 110° East 524 603 39,000 -462 Level FlightAware ADS-B
Fri 07:48:25 PM 41.4542 -76.2967 110° East 522 601 38,500 -1,645 Descending FlightAware ADS-B
Fri 07:48:56 PM 41.4277 -76.2016 110° East 522 601 37,300 -2,344 Descending FlightAware ADS-B
Fri 07:49:29 PM 41.4004 -76.1044 110° East 526 605 36,000 -2,571 Descending FlightAware ADS-B
Fri 07:49:59 PM 41.3747 -76.0125 110° East 529 609 34,600 -2,800 Descending FlightAware ADS-B
Fri 07:50:29 PM 41.3486 -75.9203 111° Southeast 531 611 33,200 -2,951 Descending FlightAware ADS-B
Fri 07:51:00 PM 41.3221 -75.8265 111° Southeast 530 610 31,600 -3,344 Descending FlightAware ADS-B
Fri 07:51:30 PM 41.2961 -75.7351 111° Southeast 530 610 29,800 -3,500 Descending FlightAware ADS-B
Fri 07:52:00 PM 41.2682 -75.6447 112° Southeast 525 604 28,100 -3,148 Descending FlightAware ADS-B
Fri 07:52:31 PM 41.2389 -75.5552 114° Southeast 515 593 26,600 -2,762 Descending FlightAware ADS-B
Fri 07:53:03 PM 41.2087 -75.4646 114° Southeast 499 574 25,200 -2,613 Descending FlightAware ADS-B
Fri 07:53:33 PM 41.1811 -75.3820 114° Southeast 486 559 23,900 -1,909 Descending FlightAware ADS-B
Fri 07:54:09 PM 41.1483 -75.2845 114° Southeast 478 550 23,100 -818 Descending FlightAware ADS-B
Fri 07:54:39 PM 41.1204 -75.2025 114° Southeast 489 563 23,000 -100 Descending FlightAware ADS-B
Fri 07:55:09 PM 41.0926 -75.1204 114° Southeast 482 555 23,000  Level FlightAware ADS-B
Fri 07:55:40 PM 41.0643 -75.0370 114° Southeast 482 555 23,000  Level FlightAware ADS-B
Fri 07:56:11 PM 41.0362 -74.9542 114° Southeast 487 560 23,000 -136 Level FlightAware ADS-B
Fri 07:56:24 PM 41.0250 -74.9204 114° Southeast 489 563 22,900 -1,116 Descending FlightAware ADS-B
Fri 07:56:54 PM 41.0042 -74.8334 108° East 494 568 22,200 -1,355 Descending FlightAware ADS-B
Fri 07:57:26 PM 40.9920 -74.7395 100° East 483 556 21,500 -1,839 Descending FlightAware ADS-B
Fri 07:57:56 PM 40.9826 -74.6506 98° East 470 541 20,300 -2,276 Descending FlightAware ADS-B
Fri 07:58:24 PM 40.9744 -74.5732 98° East 463 533 19,300 -2,200 Descending FlightAware ADS-B
Fri 07:58:26 PM 40.9737 -74.5658 97° East 462 532 19,200 -545 Descending FlightAware ADS-B
Fri 07:58:57 PM 40.9648 -74.4820 98° East 454 522 19,000 -197 Descending FlightAware ADS-B
Fri 07:59:27 PM 40.9555 -74.3984 98° East 457 526 19,000  Level FlightAware ADS-B
Fri 07:59:58 PM 40.9465 -74.3177 98° East 424 488 19,000  Level FlightAware ADS-B
Fri 08:00:17 PM 40.9414 -74.2712 98° East 395 455 19,000  Level FlightAware ADS-B
Fri 08:00:28 PM 40.9383 -74.2439 99° East 383 441 19,000  Level FlightAware ADS-B
Fri 08:00:49 PM 40.9331 -74.1972 98° East 365 420 19,000  Level FlightAware ADS-B
Fri 08:01:00 PM 40.9304 -74.1732 98° East 359 413 19,000  Level FlightAware ADS-B
Fri 08:01:09 PM 40.9271 -74.1545 103° East 357 411 19,000  Level FlightAware ADS-B
Fri 08:01:10 PM 40.9263 -74.1515 109° East 356 410 19,000  Level FlightAware ADS-B
Fri 08:01:15 PM 40.9236 -74.1419 110° East 355 409 19,000  Level FlightAware ADS-B
Fri 08:01:16 PM 40.9232 -74.1411 123° Southeast 354 407 19,000  Level FlightAware ADS-B
Fri 08:01:22 PM 40.9183 -74.1291 118° Southeast 352 405 19,000  Level FlightAware ADS-B
Fri 08:01:23 PM 40.9177 -74.1281 128° Southeast 352 405 19,000  Level FlightAware ADS-B
Fri 08:01:29 PM 40.9117 -74.1172 126° Southeast 350 403 19,000  Level FlightAware ADS-B
Fri 08:01:33 PM 40.9076 -74.1112 132° Southeast 349 402 19,000  Level FlightAware ADS-B
Fri 08:01:37 PM 40.9019 -74.1044 138° Southeast 348 400 19,000  Level FlightAware ADS-B
Fri 08:01:44 PM 40.8928 -74.0956 144° Southeast 345 397 19,000  Level FlightAware ADS-B
Fri 08:01:47 PM 40.8896 -74.0930 148° Southeast 345 397 19,000  Level FlightAware ADS-B
Fri 08:01:52 PM 40.8824 -74.0884 154° Southeast 343 395 19,000  Level FlightAware ADS-B
Fri 08:02:00 PM 40.8709 -74.0826 159° South 342 394 19,000  Level FlightAware ADS-B
Fri 08:02:25 PM 40.8326 -74.0666 162° South 343 395 19,000  Level FlightAware ADS-B
Fri 08:02:31 PM 40.8241 -74.0632 163° South 343 395 19,000 -750 Level FlightAware ADS-B
Fri 08:02:57 PM 40.7843 -74.0468 163° South 339 390 18,600 -1,091 Descending FlightAware ADS-B
Fri 08:03:04 PM 40.7742 -74.0425 162° South 339 390 18,400 -1,400 Descending FlightAware ADS-B
Fri 08:03:27 PM 40.7390 -74.0281 163° South 336 387 17,900 -1,313 Descending FlightAware ADS-B
Fri 08:03:36 PM 40.7266 -74.0230 163° South 338 389 17,700 -1,455 Descending FlightAware ADS-B
Fri 08:04:00 PM 40.6915 -74.0084 162° South 331 381 17,100 -1,556 Descending FlightAware ADS-B
Fri 08:04:30 PM 40.6475 -73.9902 163° South 329 379 16,300 -1,625 Descending FlightAware ADS-B
Fri 08:04:48 PM 40.6216 -73.9797 163° South 332 382 15,800 -1,636 Descending FlightAware ADS-B
Fri 08:05:03 PM 40.6002 -73.9711 163° South 326 375 15,400 -1,467 Descending FlightAware ADS-B
Fri 08:05:33 PM 40.5564 -73.9534 163° South 325 374 14,700 -1,452 Descending FlightAware ADS-B
Fri 08:06:05 PM 40.5112 -73.9352 163° South 321 369 13,900 -1,524 Descending FlightAware ADS-B
Fri 08:06:36 PM 40.4673 -73.9174 163° South 318 366 13,100 -1,500 Descending FlightAware ADS-B
Fri 08:07:01 PM 40.4319 -73.9026 162° South 316 364 12,500 -1,548 Descending FlightAware ADS-B
Fri 08:07:07 PM 40.4244 -73.8977 154° Southeast 318 366 12,300 -1,385 Descending FlightAware ADS-B
Fri 08:07:14 PM 40.4155 -73.8896 145° Southeast 319 367 12,200 -1,263 Descending FlightAware ADS-B
Fri 08:07:45 PM 40.3832 -73.8487 136° Southeast 315 362 11,500 -1,355 Descending FlightAware ADS-B
Fri 08:08:16 PM 40.3514 -73.8081 136° Southeast 308 354 10,800 -1,377 Descending FlightAware ADS-B
Fri 08:08:46 PM 40.3217 -73.7670 133° Southeast 305 351 10,100 -1,371 Descending FlightAware ADS-B
Fri 08:08:51 PM 40.3183 -73.7590 119° Southeast 304 350 10,000 -1,412 Descending FlightAware ADS-B
Fri 08:09:03 PM 40.3138 -73.7391 107° East 300 345 9,700 -1,500 Descending FlightAware ADS-B
Fri 08:09:11 PM 40.3138 -73.7239 90° East 296 341 9,500 -1,200 Descending FlightAware ADS-B
Fri 08:09:18 PM 40.3154 -73.7109 81° East 294 338 9,400 -1,333 Descending FlightAware ADS-B
Fri 08:09:29 PM 40.3183 -73.6925 78° East 291 335 9,100 -1,500 Descending FlightAware ADS-B
Fri 08:09:34 PM 40.3202 -73.6848 72° East 290 334 9,000 -1,714 Descending FlightAware ADS-B
Fri 08:09:43 PM 40.3265 -73.6704 60° Northeast 286 329 8,700 -1,846 Descending FlightAware ADS-B
Fri 08:09:47 PM 40.3298 -73.6654 49° Northeast 284 327 8,600 -1,000 Descending FlightAware ADS-B
Fri 08:09:55 PM 40.3377 -73.6570 39° Northeast 280 322 8,500 -1,091 Descending FlightAware ADS-B
Fri 08:09:58 PM 40.3415 -73.6537 34° Northeast 278 320 8,400 -1,143 Descending FlightAware ADS-B
Fri 08:10:16 PM 40.3608 -73.6395 29° Northeast 273 314 8,100 -1,235 Descending FlightAware ADS-B
Fri 08:10:32 PM 40.3789 -73.6269 28° Northeast 272 313 7,700 -1,412 Descending FlightAware ADS-B
Fri 08:10:50 PM 40.3983 -73.6134 28° Northeast 269 310 7,300 -1,273 Descending FlightAware ADS-B
Fri 08:11:05 PM 40.4149 -73.6019 28° Northeast 265 305 7,000 -1,313 Descending FlightAware ADS-B
Fri 08:11:22 PM 40.4329 -73.5889 29° Northeast 262 302 6,600 -632 Descending FlightAware ADS-B
Fri 08:11:43 PM 40.4556 -73.5726 29° Northeast 265 305 6,600  Level FlightAware ADS-B
Fri 08:11:58 PM 40.4724 -73.5607 28° Northeast 265 305 6,600 -364 Level FlightAware ADS-B
Fri 08:12:16 PM 40.4916 -73.5468 29° Northeast 263 303 6,400 -1,000 Descending FlightAware ADS-B
Fri 08:12:40 PM 40.5165 -73.5291 28° Northeast 260 299 5,900 -1,393 Descending FlightAware ADS-B
Fri 08:13:12 PM 40.5480 -73.5070 28° Northeast 257 296 5,100 -1,474 Descending FlightAware ADS-B
Fri 08:13:37 PM 40.5760 -73.4880 27° Northeast 255 293 4,500 -1,418 Descending FlightAware ADS-B
Fri 08:14:07 PM 40.6070 -73.4660 28° Northeast 252 290 3,800 -982 Descending FlightAware ADS-B
Fri 08:14:32 PM 40.6320 -73.4490 27° Northeast 241 277 3,600 -218 Descending FlightAware ADS-B
Fri 08:15:02 PM 40.6600 -73.4320 25° Northeast 215 247 3,600  Level FlightAware ADS-B
Fri 08:15:32 PM 40.6870 -73.4420 344° North 215 247 3,600 -109 Level FlightAware ADS-B
Fri 08:15:57 PM 40.7060 -73.4660 316° Northwest 217 250 3,500 -480 Descending FlightAware ADS-B
Fri 08:16:22 PM 40.7220 -73.4890 313° West 212 244 3,200 -960 Descending FlightAware ADS-B
Fri 08:16:47 PM 40.7390 -73.5120 314° West 212 244 2,700 -873 Descending FlightAware ADS-B
Fri 08:17:17 PM 40.7600 -73.5390 316° Northwest 191 220 2,400 -545 Descending FlightAware ADS-B
Fri 08:17:42 PM 40.7750 -73.5570 318° Northwest 179 206 2,200 -873 Descending FlightAware ADS-B
Fri 08:18:12 PM 40.7890 -73.5830 305° West 181 208 1,600 -600 Descending FlightAware ADS-B
Fri 08:18:42 PM 40.7820 -73.6150 254° West 185 213 1,600  Level FlightAware ADS-B
Fri 08:19:07 PM 40.7730 -73.6410 245° Southwest 182 209 1,600  Level FlightAware ADS-B
Fri 08:19:37 PM 40.7620 -73.6710 244° Southwest 185 213 1,600  Level FlightAware ADS-B
Fri 08:19:47 PM 40.7550 -73.6770 213° Southwest 180 207 1,600 -150 Level FlightAware ADS-B
Fri 08:20:17 PM 40.7370 -73.6930 214° Southwest 140 161 1,500 -500 Descending FlightAware ADS-B
Fri 08:20:47 PM 40.7210 -73.7060 212° Southwest 123 142 1,100 -655 Descending FlightAware ADS-B
Fri 08:21:12 PM 40.7090 -73.7150 210° Southwest 117 135 900 -655 Descending FlightAware ADS-B
Fri 08:21:42 PM 40.6950 -73.7270 213° Southwest 119 137 500 -655 Descending FlightAware ADS-B
Fri 08:22:07 PM 40.6830 -73.7370 212° Southwest 121 139 300 -480 Descending FlightAware ADS-B
Fri 08:22:37 PM 40.6690 -73.7490 213° Southwest 121 139 -600 Descending FlightAware ADS-B
Fri 08:23:07 PM 40.6540 -73.7600 209° Southwest 117 135  Level FlightAware ADS-B

Login

Don't have an account? Register now (free) for customized features, flight alerts, and more!